Time;durP1;ratioP1;P1;durP2;ratioP2;P2;SDS_P1;SDS_P2;PMS_P1;PMS_P2;Temp;Humidity;BMP_temperature;BMP_pressure;BME280_temperature;BME280_humidity;BME280_pressure;Samples;Min_cycle;Max_cycle;Signal;HPM_P1;HPM_P2
2022/02/02 00:00:38;;;;;;;;;;;;;;;;;;5050645;28;19932;-96
2022/02/02 00:03:09;;;;;;;;;;;;;;;;;;5047725;28;19936;-96
2022/02/02 00:05:48;;;;;;;;;;;;;;;;;;5049201;28;19932;-96
2022/02/02 00:08:31;;;;;;;;;;;;;;;;;;5045835;28;19935;-96
2022/02/02 00:13:53;;;;;;;;;;;;;;;;;;5049132;28;19912;-96
2022/02/02 00:16:41;;;;;;;;;;;;;;;;;;5047748;28;19975;-96
2022/02/02 00:19:09;;;;;;;;;;;;;;;;;;5047251;28;19956;-94
2022/02/02 00:21:43;;;;;;;;;;;;;;;;;;5047090;28;19926;-95
2022/02/02 00:24:19;;;;;;;;;;;;;;;;;;5045258;28;20012;-93
2022/02/02 00:26:46;;;;;;;;;;;;;;;;;;5046025;28;19948;-93
2022/02/02 00:29:21;;;;;;;;;;;;;;;;;;5047226;28;19925;-96
2022/02/02 00:31:59;;;;;;;;;;;;;;;;;;5048015;28;19929;-96
2022/02/02 00:34:31;;;;;;;;;;;;;;;;;;5050312;28;19929;-94
2022/02/02 00:37:01;;;;;;;;;;;;;;;;;;5050846;28;19925;-96
2022/02/02 00:39:27;;;;;;;;;;;;;;;;;;5043899;28;19959;-95
2022/02/02 00:42:02;;;;;;;;;;;;;;;;;;5045345;28;19936;-96
2022/02/02 00:47:05;;;;;;;;;;;;;;;;;;5052325;22;19998;-94
2022/02/02 00:49:32;;;;;;;;;;;;;;;;;;5050130;28;19931;-96
2022/02/02 00:51:59;;;;;;;;;;;;;;;;;;5066465;28;19949;-95
2022/02/02 00:54:38;;;;;;;;;;;;;;;;;;5067865;28;19924;-96
2022/02/02 00:57:11;;;;;;;;;;;;;;;;;;5071980;28;19908;-96
2022/02/02 00:59:37;;;;;;;;;;;;;;;;;;5064060;28;19929;-94
2022/02/02 01:02:12;;;;;;;;;;;;;;;;;;5054503;28;19952;-96
2022/02/02 01:04:40;;;;;;;;;;;;;;;;;;5066473;28;19925;-96
2022/02/02 01:07:13;;;;;;;;;;;;;;;;;;5064407;28;20444;-93
2022/02/02 01:09:44;;;;;;;;;;;;;;;;;;5064724;28;19929;-96
2022/02/02 01:12:39;;;;;;;;;;;;;;;;;;5064545;28;20499;-93
2022/02/02 01:20:54;;;;;;;;;;;;;;;;;;5042643;28;19932;-92
2022/02/02 01:28:48;;;;;;;;;;;;;;;;;;5063377;28;20023;-96
2022/02/02 01:31:17;;;;;;;;;;;;;;;;;;5066839;28;19924;-96
2022/02/02 01:33:43;;;;;;;;;;;;;;;;;;5046636;28;19933;-94
2022/02/02 01:36:13;;;;;;;;;;;;;;;;;;5045546;28;19925;-96
2022/02/02 01:38:40;;;;;;;;;;;;;;;;;;5066037;28;19928;-95
2022/02/02 01:41:10;;;;;;;;;;;;;;;;;;5065111;28;19925;-96
2022/02/02 01:43:42;;;;;;;;;;;;;;;;;;5065698;28;19925;-95
2022/02/02 01:49:01;;;;;;;;;;;;;;;;;;5063642;28;20016;-96
2022/02/02 01:54:35;;;;;;;;;;;;;;;;;;5361615;22;19947;-96
2022/02/02 01:57:10;;;;;;;;;;;;;;;;;;5316026;22;19925;-95
2022/02/02 01:59:39;;;;;;;;;;;;;;;;;;5066310;28;19925;-96
2022/02/02 02:02:06;;;;;;;;;;;;;;;;;;5069256;28;19948;-96
2022/02/02 02:07:03;;;;;;;;;;;;;;;;;;5407437;22;19956;-96
2022/02/02 02:09:33;;;;;;;;;;;;;;;;;;5052319;28;19928;-96
2022/02/02 02:11:59;;;;;;;;;;;;;;;;;;5046337;28;19925;-94
2022/02/02 02:14:47;;;;;;;;;;;;;;;;;;5372008;22;19925;-94
2022/02/02 02:17:13;;;;;;;;;;;;;;;;;;5067510;28;19925;-96
2022/02/02 02:22:20;;;;;;;;;;;;;;;;;;5064097;28;19962;-96
2022/02/02 02:24:57;;;;;;;;;;;;;;;;;;5079992;23;19931;-96
2022/02/02 04:18:06;;;;;;;;;;;;;;;;;;5064723;28;19988;-96
2022/02/02 04:56:10;;;;;;;;;;;;;;;;;;5065419;28;19956;-96
2022/02/02 04:58:46;;;;;;;;;;;;;;;;;;5064798;28;19932;-95
2022/02/02 05:02:05;;;;;;;;;;;;;;;;;;5064049;28;19929;-96
2022/02/02 05:04:39;;;;;;;;;;;;;;;;;;5065496;28;19975;-96
2022/02/02 05:07:19;;;;;;;;;;;;;;;;;;5432252;22;19951;-96
2022/02/02 05:09:55;;;;;;;;;;;;;;;;;;5065517;28;19924;-91
2022/02/02 05:54:08;;;;;;;;;;;;;;;;;;5159528;22;20902;-95
2022/02/02 06:23:24;;;;;;;;;;;;;;;;;;5056066;28;19909;-96
2022/02/02 06:31:17;;;;;;;;;;;;;;;;;;5065939;28;20377;-96
2022/02/02 06:33:44;;;;;;;;;;;;;;;;;;5067541;28;19932;-96
2022/02/02 06:36:11;;;;;;;;;;;;;;;;;;5064966;28;19925;-96
2022/02/02 06:41:17;;;;;;;;;;;;;;;;;;5340310;22;21025;-96
2022/02/02 06:46:32;;;;;;;;;;;;;;;;;;5107125;22;20140;-96
2022/02/02 06:49:02;;;;;;;;;;;;;;;;;;5050364;28;19964;-96
2022/02/02 06:51:48;;;;;;;;;;;;;;;;;;5054252;28;19926;-96
2022/02/02 06:57:06;;;;;;;;;;;;;;;;;;5058989;28;19917;-96
2022/02/02 07:00:12;;;;;;;;;;;;;;;;;;5044528;23;19968;-96
2022/02/02 07:02:57;;;;;;;;;;;;;;;;;;5046242;22;19960;-96
2022/02/02 07:08:13;;;;;;;;;;;;;;;;;;5148671;22;19925;-96
2022/02/02 07:10:56;;;;;;;;;;;;;;;;;;5072523;28;19936;-96
2022/02/02 07:13:42;;;;;;;;;;;;;;;;;;5110846;23;19931;-96
2022/02/02 07:24:33;;;;;;;;;;;;;;;;;;5420100;22;19947;-96
2022/02/02 07:30:22;;;;;;;;;;;;;;;;;;5156128;22;19987;-96
2022/02/02 07:33:07;;;;;;;;;;;;;;;;;;5077648;23;19932;-96
2022/02/02 07:35:46;;;;;;;;;;;;;;;;;;5342205;22;19925;-96
2022/02/02 07:38:23;;;;;;;;;;;;;;;;;;5151397;22;20031;-96
2022/02/02 07:48:51;;;;;;;;;;;;;;;;;;5127231;22;19924;-96
2022/02/02 07:51:18;;;;;;;;;;;;;;;;;;5066098;28;19910;-96
2022/02/02 07:56:17;;;;;;;;;;;;;;;;;;5066208;28;19933;-95
2022/02/02 07:59:09;;;;;;;;;;;;;;;;;;5140849;22;19950;-96
2022/02/02 08:01:37;;;;;;;;;;;;;;;;;;5075612;28;19988;-95
2022/02/02 08:04:06;;;;;;;;;;;;;;;;;;5071637;28;19972;-94
2022/02/02 08:06:33;;;;;;;;;;;;;;;;;;5071530;28;19925;-96
2022/02/02 08:09:02;;;;;;;;;;;;;;;;;;5067480;28;19932;-95
2022/02/02 08:11:33;;;;;;;;;;;;;;;;;;5086784;28;19939;-96
2022/02/02 08:14:02;;;;;;;;;;;;;;;;;;5091395;28;19924;-96
2022/02/02 08:16:30;;;;;;;;;;;;;;;;;;5069458;28;20345;-96
2022/02/02 08:18:57;;;;;;;;;;;;;;;;;;5069281;28;20012;-94
2022/02/02 08:21:24;;;;;;;;;;;;;;;;;;5087664;28;19935;-96
2022/02/02 08:23:53;;;;;;;;;;;;;;;;;;5089078;28;19928;-94
2022/02/02 08:26:25;;;;;;;;;;;;;;;;;;5089956;28;20381;-96
2022/02/02 08:29:00;;;;;;;;;;;;;;;;;;5083895;28;19964;-96
2022/02/02 08:31:27;;;;;;;;;;;;;;;;;;5086044;28;19925;-94
2022/02/02 08:33:57;;;;;;;;;;;;;;;;;;5086957;28;19925;-94
2022/02/02 08:36:23;;;;;;;;;;;;;;;;;;5087004;28;19931;-94
2022/02/02 08:41:39;;;;;;;;;;;;;;;;;;5083289;28;19931;-93
2022/02/02 08:44:09;;;;;;;;;;;;;;;;;;5085685;28;19931;-92
2022/02/02 08:46:39;;;;;;;;;;;;;;;;;;5085608;28;19928;-95
2022/02/02 08:49:09;;;;;;;;;;;;;;;;;;5070067;28;19980;-96
2022/02/02 08:51:39;;;;;;;;;;;;;;;;;;5086468;28;19924;-93
2022/02/02 08:54:14;;;;;;;;;;;;;;;;;;5087327;28;19924;-92
2022/02/02 08:59:40;;;;;;;;;;;;;;;;;;5063740;28;19931;-93
2022/02/02 09:02:13;;;;;;;;;;;;;;;;;;5067280;28;19924;-95
2022/02/02 09:07:23;;;;;;;;;;;;;;;;;;5086313;28;19966;-95
2022/02/02 09:09:59;;;;;;;;;;;;;;;;;;5064452;28;19924;-95
2022/02/02 09:26:24;;;;;;;;;;;;;;;;;;5077624;22;19928;-96
2022/02/02 09:31:45;;;;;;;;;;;;;;;;;;5062758;28;19966;-96
2022/02/02 09:34:19;;;;;;;;;;;;;;;;;;5069329;28;19931;-96
2022/02/02 09:36:51;;;;;;;;;;;;;;;;;;5068716;28;19928;-96
2022/02/02 09:39:27;;;;;;;;;;;;;;;;;;5074610;23;19956;-96
2022/02/02 09:42:02;;;;;;;;;;;;;;;;;;5168208;22;19908;-97
2022/02/02 09:44:35;;;;;;;;;;;;;;;;;;5071485;28;19928;-96
2022/02/02 09:47:18;;;;;;;;;;;;;;;;;;5093307;22;19908;-96
2022/02/02 09:49:53;;;;;;;;;;;;;;;;;;5246435;22;19932;-96
2022/02/02 10:11:04;;;;;;;;;;;;;;;;;;5053172;28;19925;-95
2022/02/02 10:19:03;;;;;;;;;;;;;;;;;;5092633;28;19978;-96
2022/02/02 10:24:19;;;;;;;;;;;;;;;;;;5079774;22;19908;-96
2022/02/02 10:26:49;;;;;;;;;;;;;;;;;;5076966;28;19950;-96
2022/02/02 10:29:20;;;;;;;;;;;;;;;;;;5088532;28;20493;-96
2022/02/02 10:34:42;;;;;;;;;;;;;;;;;;5842427;22;19932;-96
2022/02/02 10:37:09;;;;;;;;;;;;;;;;;;5109860;22;19925;-96
2022/02/02 10:42:10;;;;;;;;;;;;;;;;;;5425513;22;19964;-95
2022/02/02 10:44:40;;;;;;;;;;;;;;;;;;5071385;28;20335;-96
2022/02/02 10:47:14;;;;;;;;;;;;;;;;;;5067569;28;19929;-96
2022/02/02 10:49:49;;;;;;;;;;;;;;;;;;5066833;28;19929;-96
2022/02/02 11:08:28;;;;;;;;;;;;;;;;;;5396685;22;19929;-96
2022/02/02 11:13:30;;;;;;;;;;;;;;;;;;5313240;22;19917;-96
2022/02/02 11:21:15;;;;;;;;;;;;;;;;;;5116584;22;19917;-96
2022/02/02 11:23:45;;;;;;;;;;;;;;;;;;5289475;22;19930;-96
2022/02/02 11:26:13;;;;;;;;;;;;;;;;;;5192416;22;19912;-96
2022/02/02 11:28:39;;;;;;;;;;;;;;;;;;5073793;28;19928;-96
2022/02/02 11:31:05;;;;;;;;;;;;;;;;;;5071695;28;19984;-96
2022/02/02 11:33:32;;;;;;;;;;;;;;;;;;5072466;28;19924;-96
2022/02/02 11:36:10;;;;;;;;;;;;;;;;;;5073221;28;19925;-96
2022/02/02 11:38:56;;;;;;;;;;;;;;;;;;5073748;28;19924;-96
2022/02/02 11:41:33;;;;;;;;;;;;;;;;;;5069268;28;19931;-96
2022/02/02 11:44:06;;;;;;;;;;;;;;;;;;5066869;28;19948;-96
2022/02/02 11:46:32;;;;;;;;;;;;;;;;;;5065353;28;19936;-96
2022/02/02 11:49:04;;;;;;;;;;;;;;;;;;5065941;28;19925;-95
2022/02/02 11:51:32;;;;;;;;;;;;;;;;;;5066088;28;20095;-96
2022/02/02 11:54:01;;;;;;;;;;;;;;;;;;5053133;28;19936;-95
2022/02/02 11:56:30;;;;;;;;;;;;;;;;;;5051781;28;19929;-94
2022/02/02 11:58:57;;;;;;;;;;;;;;;;;;5065555;28;20007;-94
2022/02/02 12:01:27;;;;;;;;;;;;;;;;;;5066735;28;19929;-94
2022/02/02 12:04:08;;;;;;;;;;;;;;;;;;5065970;28;19925;-96
2022/02/02 12:06:57;;;;;;;;;;;;;;;;;;5066027;28;19925;-94
2022/02/02 12:09:29;;;;;;;;;;;;;;;;;;5066186;28;19925;-95
2022/02/02 12:45:14;;;;;;;;;;;;;;;;;;5063958;28;19920;-96
2022/02/02 12:47:42;;;;;;;;;;;;;;;;;;5064948;28;19929;-94
2022/02/02 12:56:13;;;;;;;;;;;;;;;;;;5064574;28;20384;-96
2022/02/02 12:58:46;;;;;;;;;;;;;;;;;;5044839;28;19925;-93
2022/02/02 13:01:13;;;;;;;;;;;;;;;;;;5045528;28;19956;-96
2022/02/02 13:03:45;;;;;;;;;;;;;;;;;;5064093;28;19964;-96
2022/02/02 13:06:12;;;;;;;;;;;;;;;;;;5068798;22;19925;-96
2022/02/02 13:08:38;;;;;;;;;;;;;;;;;;5047623;28;20372;-93
2022/02/02 13:11:04;;;;;;;;;;;;;;;;;;5042548;28;20422;-93
2022/02/02 13:13:31;;;;;;;;;;;;;;;;;;5042646;28;20376;-90
2022/02/02 13:15:58;;;;;;;;;;;;;;;;;;5042002;28;19960;-92
2022/02/02 13:18:28;;;;;;;;;;;;;;;;;;5057767;28;19932;-93
2022/02/02 13:20:59;;;;;;;;;;;;;;;;;;5062397;28;19924;-91
2022/02/02 13:23:30;;;;;;;;;;;;;;;;;;5061383;28;19936;-91
2022/02/02 13:25:57;;;;;;;;;;;;;;;;;;5062412;28;19924;-94
2022/02/02 13:28:24;;;;;;;;;;;;;;;;;;5063399;28;19924;-91
2022/02/02 13:30:53;;;;;;;;;;;;;;;;;;5063215;28;19925;-90
2022/02/02 13:33:28;;;;;;;;;;;;;;;;;;5063398;28;19924;-92
2022/02/02 13:36:00;;;;;;;;;;;;;;;;;;5062783;28;19924;-93
2022/02/02 13:38:38;;;;;;;;;;;;;;;;;;5059557;28;19928;-92
2022/02/02 13:44:19;;;;;;;;;;;;;;;;;;5042580;28;19959;-92
2022/02/02 13:47:02;;;;;;;;;;;;;;;;;;5040750;28;20505;-91
2022/02/02 13:52:30;;;;;;;;;;;;;;;;;;5154284;27;19919;-94
2022/02/02 13:55:11;;;;;;;;;;;;;;;;;;5140753;28;19924;-92
2022/02/02 13:58:01;;;;;;;;;;;;;;;;;;5140427;28;19968;-92
2022/02/02 14:00:35;;;;;;;;;;;;;;;;;;5139513;28;19924;-91
2022/02/02 14:33:12;;;;;;;;;;;;;;;;;;5139750;28;19975;-91
2022/02/02 14:35:38;;;;;;;;;;;;;;;;;;5139498;28;19939;-90
2022/02/02 14:38:06;;;;;;;;;;;;;;;;;;5138848;28;19924;-93
2022/02/02 14:40:40;;;;;;;;;;;;;;;;;;5137855;28;19923;-91
2022/02/02 14:43:08;;;;;;;;;;;;;;;;;;5138218;27;19923;-91
2022/02/02 14:45:39;;;;;;;;;;;;;;;;;;5140596;28;19970;-91
2022/02/02 14:48:10;;;;;;;;;;;;;;;;;;5138274;28;19925;-92
2022/02/02 14:50:50;;;;;;;;;;;;;;;;;;5139216;28;19923;-93
2022/02/02 14:53:24;;;;;;;;;;;;;;;;;;5138875;27;19966;-91
2022/02/02 14:56:11;;;;;;;;;;;;;;;;;;5138074;28;19963;-91
2022/02/02 15:28:51;;;;;;;;;;;;;;;;;;5120479;27;19931;-94
2022/02/02 15:31:18;;;;;;;;;;;;;;;;;;5117219;27;20287;-93
2022/02/02 15:33:47;;;;;;;;;;;;;;;;;;5118487;27;20265;-93
2022/02/02 15:36:48;;;;;;;;;;;;;;;;;;5116343;27;19949;-91
2022/02/02 15:39:16;;;;;;;;;;;;;;;;;;5140232;27;19996;-92
2022/02/02 15:41:57;;;;;;;;;;;;;;;;;;5127029;27;19928;-91
2022/02/02 15:55:51;;;;;;;;;;;;;;;;;;5117796;27;19926;-91
2022/02/02 15:58:14;;;;;;;;;;;;;;;;;;5116524;27;19927;-91
2022/02/02 16:03:26;;;;;;;;;;;;;;;;;;5112574;27;19935;-91
2022/02/02 16:05:59;;;;;;;;;;;;;;;;;;5136024;27;19943;-91
2022/02/02 16:08:27;;;;;;;;;;;;;;;;;;5128205;27;19944;-91
2022/02/02 16:11:03;;;;;;;;;;;;;;;;;;5134102;27;19955;-89
2022/02/02 16:13:34;;;;;;;;;;;;;;;;;;5122524;27;19932;-93
2022/02/02 16:16:04;;;;;;;;;;;;;;;;;;5122318;27;20010;-92
2022/02/02 16:18:46;;;;;;;;;;;;;;;;;;5124853;27;19924;-93
2022/02/02 16:32:32;;;;;;;;;;;;;;;;;;5105526;28;20546;-91
2022/02/02 16:35:13;;;;;;;;;;;;;;;;;;5114021;28;20401;-90
2022/02/02 16:37:42;;;;;;;;;;;;;;;;;;5110285;28;19924;-91
2022/02/02 16:40:08;;;;;;;;;;;;;;;;;;5115085;28;19924;-92
2022/02/02 16:45:18;;;;;;;;;;;;;;;;;;5124398;28;19938;-92
2022/02/02 16:47:44;;;;;;;;;;;;;;;;;;5123552;28;19927;-91
2022/02/02 16:50:15;;;;;;;;;;;;;;;;;;5124521;28;19946;-92
2022/02/02 16:52:42;;;;;;;;;;;;;;;;;;5123618;28;19927;-92
2022/02/02 16:55:15;;;;;;;;;;;;;;;;;;5114013;28;19931;-91
2022/02/02 16:57:51;;;;;;;;;;;;;;;;;;5113665;28;19924;-92
2022/02/02 17:30:34;;;;;;;;;;;;;;;;;;5078083;28;19935;-93
2022/02/02 17:33:04;;;;;;;;;;;;;;;;;;5103044;28;19931;-92
2022/02/02 17:35:57;;;;;;;;;;;;;;;;;;5120444;28;19930;-92
2022/02/02 17:38:32;;;;;;;;;;;;;;;;;;5120952;28;19930;-92
2022/02/02 17:44:04;;;;;;;;;;;;;;;;;;5117900;28;20016;-93
2022/02/02 18:19:44;;;;;;;;;;;;;;;;;;5110631;28;19926;-95
2022/02/02 18:22:12;;;;;;;;;;;;;;;;;;5108151;28;19950;-93
2022/02/02 18:24:50;;;;;;;;;;;;;;;;;;5119342;28;19924;-93
2022/02/02 18:27:22;;;;;;;;;;;;;;;;;;5108697;28;20080;-93
2022/02/02 18:30:00;;;;;;;;;;;;;;;;;;5103105;28;19928;-93
2022/02/02 18:32:41;;;;;;;;;;;;;;;;;;5100714;28;19946;-92
2022/02/02 18:35:12;;;;;;;;;;;;;;;;;;5110186;28;19924;-94
2022/02/02 18:48:43;;;;;;;;;;;;;;;;;;5084314;28;19947;-93
2022/02/02 18:54:11;;;;;;;;;;;;;;;;;;5112750;27;19999;-92
2022/02/02 18:56:52;;;;;;;;;;;;;;;;;;5109161;28;19932;-94
2022/02/02 18:59:36;;;;;;;;;;;;;;;;;;5115519;28;19928;-92
2022/02/02 19:02:09;;;;;;;;;;;;;;;;;;5106557;28;19928;-92
2022/02/02 19:04:56;;;;;;;;;;;;;;;;;;5123275;28;19995;-93
2022/02/02 19:37:38;;;;;;;;;;;;;;;;;;5122584;28;19938;-92
2022/02/02 19:56:44;;;;;;;;;;;;;;;;;;5113187;28;20439;-95
2022/02/02 20:02:08;;;;;;;;;;;;;;;;;;5107657;28;19918;-93
2022/02/02 20:04:42;;;;;;;;;;;;;;;;;;5110776;28;19927;-94
2022/02/02 20:09:58;;;;;;;;;;;;;;;;;;5105022;28;19931;-96
2022/02/02 20:12:27;;;;;;;;;;;;;;;;;;5126284;28;19924;-92
2022/02/02 20:14:53;;;;;;;;;;;;;;;;;;5125240;28;19987;-92
2022/02/02 20:17:22;;;;;;;;;;;;;;;;;;5125467;28;19923;-93
2022/02/02 20:19:55;;;;;;;;;;;;;;;;;;5124575;28;19924;-92
2022/02/02 20:22:27;;;;;;;;;;;;;;;;;;5126757;28;19924;-96
2022/02/02 20:24:59;;;;;;;;;;;;;;;;;;5254332;22;19980;-96
2022/02/02 20:27:25;;;;;;;;;;;;;;;;;;5079546;28;19924;-95
2022/02/02 20:30:00;;;;;;;;;;;;;;;;;;5079100;28;19916;-96
2022/02/02 20:32:26;;;;;;;;;;;;;;;;;;5076490;28;19929;-92
2022/02/02 20:34:53;;;;;;;;;;;;;;;;;;5065434;28;19925;-93
2022/02/02 20:37:20;;;;;;;;;;;;;;;;;;5065472;28;20380;-94
2022/02/02 20:39:52;;;;;;;;;;;;;;;;;;5084870;28;19924;-93
2022/02/02 20:42:24;;;;;;;;;;;;;;;;;;5068609;28;19925;-93
2022/02/02 20:45:08;;;;;;;;;;;;;;;;;;5066947;28;19925;-96
2022/02/02 21:07:04;;;;;;;;;;;;;;;;;;5040499;22;19980;-96
2022/02/02 21:09:48;;;;;;;;;;;;;;;;;;5045054;28;19925;-96
2022/02/02 21:15:00;;;;;;;;;;;;;;;;;;5039510;28;19988;-95
2022/02/02 21:17:32;;;;;;;;;;;;;;;;;;5025493;28;19929;-95
2022/02/02 21:20:08;;;;;;;;;;;;;;;;;;5028919;28;19932;-91
2022/02/02 21:22:45;;;;;;;;;;;;;;;;;;5043949;28;19932;-92
2022/02/02 21:25:31;;;;;;;;;;;;;;;;;;5046774;28;19925;-96
2022/02/02 21:28:02;;;;;;;;;;;;;;;;;;5049059;28;19971;-96
2022/02/02 21:30:28;;;;;;;;;;;;;;;;;;5044164;28;19925;-95
2022/02/02 21:32:55;;;;;;;;;;;;;;;;;;5056667;28;19960;-94
2022/02/02 21:35:22;;;;;;;;;;;;;;;;;;5055196;28;20402;-94
2022/02/02 21:37:50;;;;;;;;;;;;;;;;;;5052549;28;19925;-94
2022/02/02 21:40:20;;;;;;;;;;;;;;;;;;5051856;28;20339;-94
2022/02/02 21:42:46;;;;;;;;;;;;;;;;;;5063135;28;19948;-93
2022/02/02 21:45:12;;;;;;;;;;;;;;;;;;5058459;28;19925;-92
2022/02/02 21:47:39;;;;;;;;;;;;;;;;;;5048773;28;19929;-95
2022/02/02 21:50:09;;;;;;;;;;;;;;;;;;5049850;28;20012;-95
2022/02/02 21:52:35;;;;;;;;;;;;;;;;;;5054859;28;19932;-92
2022/02/02 21:55:03;;;;;;;;;;;;;;;;;;5051323;28;20391;-95
2022/02/02 21:57:29;;;;;;;;;;;;;;;;;;5049912;28;19932;-95
2022/02/02 21:59:55;;;;;;;;;;;;;;;;;;5050345;28;19933;-93
2022/02/02 22:02:28;;;;;;;;;;;;;;;;;;5052639;28;20018;-95
2022/02/02 22:04:54;;;;;;;;;;;;;;;;;;5051920;28;19970;-94
2022/02/02 22:07:20;;;;;;;;;;;;;;;;;;5038961;28;19929;-93
2022/02/02 22:09:49;;;;;;;;;;;;;;;;;;5040663;28;19926;-96
2022/02/02 22:12:15;;;;;;;;;;;;;;;;;;5042729;28;19933;-95
2022/02/02 22:14:46;;;;;;;;;;;;;;;;;;5044728;28;19925;-96
2022/02/02 22:17:12;;;;;;;;;;;;;;;;;;5024502;28;19925;-94
2022/02/02 22:19:43;;;;;;;;;;;;;;;;;;5027915;28;19926;-96
2022/02/02 22:22:10;;;;;;;;;;;;;;;;;;5046245;28;19932;-94
2022/02/02 22:24:38;;;;;;;;;;;;;;;;;;5046072;28;20102;-96
2022/02/02 22:27:07;;;;;;;;;;;;;;;;;;5045179;28;19952;-96
2022/02/02 22:29:33;;;;;;;;;;;;;;;;;;5049953;28;19924;-93
2022/02/02 22:31:59;;;;;;;;;;;;;;;;;;5051237;28;19925;-95
2022/02/02 22:34:26;;;;;;;;;;;;;;;;;;5052038;28;19932;-95
2022/02/02 22:37:01;;;;;;;;;;;;;;;;;;5055292;28;19925;-95
2022/02/02 22:39:27;;;;;;;;;;;;;;;;;;5057004;28;19925;-96
2022/02/02 22:41:55;;;;;;;;;;;;;;;;;;5052334;28;19960;-96
2022/02/02 22:44:22;;;;;;;;;;;;;;;;;;5049606;28;19925;-96
2022/02/02 22:46:48;;;;;;;;;;;;;;;;;;5048672;28;19925;-95
2022/02/02 22:49:14;;;;;;;;;;;;;;;;;;5047340;28;20657;-94
2022/02/02 22:51:44;;;;;;;;;;;;;;;;;;5041521;28;20665;-96
2022/02/02 22:54:11;;;;;;;;;;;;;;;;;;5040956;28;19926;-95
2022/02/02 22:56:37;;;;;;;;;;;;;;;;;;5042736;28;19925;-93
2022/02/02 22:59:03;;;;;;;;;;;;;;;;;;5044623;28;19925;-95
2022/02/02 23:01:32;;;;;;;;;;;;;;;;;;5045713;28;19925;-95
2022/02/02 23:04:04;;;;;;;;;;;;;;;;;;5049378;28;19932;-96
2022/02/02 23:06:32;;;;;;;;;;;;;;;;;;5046031;28;21156;-96
2022/02/02 23:09:00;;;;;;;;;;;;;;;;;;5028112;28;19932;-95
2022/02/02 23:11:26;;;;;;;;;;;;;;;;;;5027887;28;19926;-93
2022/02/02 23:13:54;;;;;;;;;;;;;;;;;;5029098;28;19926;-95
2022/02/02 23:16:38;;;;;;;;;;;;;;;;;;5032827;28;19925;-95
2022/02/02 23:19:13;;;;;;;;;;;;;;;;;;5030152;28;20012;-96
2022/02/02 23:21:40;;;;;;;;;;;;;;;;;;5030696;28;19926;-96
2022/02/02 23:24:07;;;;;;;;;;;;;;;;;;5087069;23;19991;-92
2022/02/02 23:26:33;;;;;;;;;;;;;;;;;;5087491;28;20531;-96
2022/02/02 23:29:00;;;;;;;;;;;;;;;;;;5090624;28;19925;-96
2022/02/02 23:31:28;;;;;;;;;;;;;;;;;;5089127;28;19925;-93
2022/02/02 23:33:57;;;;;;;;;;;;;;;;;;5088864;28;19928;-96
2022/02/02 23:36:25;;;;;;;;;;;;;;;;;;5089353;28;19924;-96
2022/02/02 23:38:52;;;;;;;;;;;;;;;;;;5086194;28;19925;-96
2022/02/02 23:44:02;;;;;;;;;;;;;;;;;;5066433;28;20004;-96
2022/02/02 23:46:29;;;;;;;;;;;;;;;;;;5079097;28;19924;-96
2022/02/02 23:48:58;;;;;;;;;;;;;;;;;;5089630;28;19983;-96
2022/02/02 23:51:28;;;;;;;;;;;;;;;;;;5088739;28;19924;-94
2022/02/02 23:54:02;;;;;;;;;;;;;;;;;;5089823;28;19924;-96
2022/02/02 23:56:49;;;;;;;;;;;;;;;;;;5086695;28;19930;-93
2022/02/02 23:59:20;;;;;;;;;;;;;;;;;;5089779;28;19971;-92
